sensor_id;sensor_type;location;lat;lon;timestamp;P1;P2;P0
50041;PMS7003;44598;51.606;5.912;2022-12-18T00:27:21;;;
50041;PMS7003;44598;51.606;5.912;2022-12-18T00:39:44;;;
50041;PMS7003;44598;51.606;5.912;2022-12-18T00:52:08;;;
50041;PMS7003;44598;51.606;5.912;2022-12-18T01:04:31;;;
50041;PMS7003;44598;51.606;5.912;2022-12-18T01:29:18;;;
50041;PMS7003;44598;51.606;5.912;2022-12-18T01:41:42;;;
50041;PMS7003;44598;51.606;5.912;2022-12-18T01:54:05;;;
50041;PMS7003;44598;51.606;5.912;2022-12-18T02:06:29;;;
50041;PMS7003;44598;51.606;5.912;2022-12-18T02:18:52;;;
50041;PMS7003;44598;51.606;5.912;2022-12-18T02:31:16;;;
50041;PMS7003;44598;51.606;5.912;2022-12-18T02:43:40;;;
50041;PMS7003;44598;51.606;5.912;2022-12-18T02:56:03;;;
50041;PMS7003;44598;51.606;5.912;2022-12-18T03:08:27;;;
50041;PMS7003;44598;51.606;5.912;2022-12-18T03:20:50;;;
50041;PMS7003;44598;51.606;5.912;2022-12-18T03:33:12;;;
50041;PMS7003;44598;51.606;5.912;2022-12-18T03:45:36;;;
50041;PMS7003;44598;51.606;5.912;2022-12-18T03:57:59;;;
50041;PMS7003;44598;51.606;5.912;2022-12-18T04:10:23;;;
50041;PMS7003;44598;51.606;5.912;2022-12-18T04:22:46;;;
50041;PMS7003;44598;51.606;5.912;2022-12-18T04:35:10;;;
50041;PMS7003;44598;51.606;5.912;2022-12-18T04:47:33;;;
50041;PMS7003;44598;51.606;5.912;2022-12-18T04:59:57;;;
50041;PMS7003;44598;51.606;5.912;2022-12-18T05:24:44;;;
50041;PMS7003;44598;51.606;5.912;2022-12-18T05:37:07;;;
50041;PMS7003;44598;51.606;5.912;2022-12-18T05:49:31;;;
50041;PMS7003;44598;51.606;5.912;2022-12-18T06:01:54;;;
50041;PMS7003;44598;51.606;5.912;2022-12-18T06:14:18;;;
50041;PMS7003;44598;51.606;5.912;2022-12-18T06:26:41;;;
50041;PMS7003;44598;51.606;5.912;2022-12-18T06:39:05;;;
50041;PMS7003;44598;51.606;5.912;2022-12-18T07:03:52;;;
50041;PMS7003;44598;51.606;5.912;2022-12-18T07:16:15;;;
50041;PMS7003;44598;51.606;5.912;2022-12-18T07:29:06;35.3;30.75;13.85
50041;PMS7003;44598;51.606;5.912;2022-12-18T07:42:27;37.46;31.73;14.72
50041;PMS7003;44598;51.606;5.912;2022-12-18T07:55:48;37.1;31.29;13.74
50041;PMS7003;44598;51.606;5.912;2022-12-18T08:09:09;37.82;31.07;14.4
50041;PMS7003;44598;51.606;5.912;2022-12-18T08:22:30;38.66;32.16;15.16
50041;PMS7003;44598;51.606;5.912;2022-12-18T08:35:51;37.1;31.95;14.4
50041;PMS7003;44598;51.606;5.912;2022-12-18T08:49:12;38.18;32.05;14.07
50041;PMS7003;44598;51.606;5.912;2022-12-18T09:02:33;33.37;29.22;12.76
50041;PMS7003;44598;51.606;5.912;2022-12-18T09:15:54;38.78;32.38;15.16
50041;PMS7003;44598;51.606;5.912;2022-12-18T09:29:15;33.62;28.79;12.87
50041;PMS7003;44598;51.606;5.912;2022-12-18T09:42:36;35.18;29.77;13.09
50041;PMS7003;44598;51.606;5.912;2022-12-18T09:55:57;35.54;29.88;12.76
50041;PMS7003;44598;51.606;5.912;2022-12-18T10:22:39;29.65;26.06;11.56
50041;PMS7003;44598;51.606;5.912;2022-12-18T10:36:00;28.33;25.84;11.45
50041;PMS7003;44598;51.606;5.912;2022-12-18T10:49:21;27.49;25.73;11.89
50041;PMS7003;44598;51.606;5.912;2022-12-18T11:02:42;27.61;25.3;11.56
50041;PMS7003;44598;51.606;5.912;2022-12-18T11:16:03;26.53;24.53;11.02
50041;PMS7003;44598;51.606;5.912;2022-12-18T11:29:24;27.13;25.52;11.56
50041;PMS7003;44598;51.606;5.912;2022-12-18T11:42:45;28.57;25.62;12.0
50041;PMS7003;44598;51.606;5.912;2022-12-18T11:56:06;28.45;25.3;11.35
50041;PMS7003;44598;51.606;5.912;2022-12-18T12:09:27;28.33;25.41;11.24
50041;PMS7003;44598;51.606;5.912;2022-12-18T12:22:49;28.69;25.3;11.89
50041;PMS7003;44598;51.606;5.912;2022-12-18T12:36:10;28.69;25.73;11.78
50041;PMS7003;44598;51.606;5.912;2022-12-18T12:49:31;27.25;24.86;10.91
50041;PMS7003;44598;51.606;5.912;2022-12-18T13:02:52;30.25;26.28;11.78
50041;PMS7003;44598;51.606;5.912;2022-12-18T13:29:34;29.17;25.95;12.54
50041;PMS7003;44598;51.606;5.912;2022-12-18T13:56:16;28.33;25.41;12.33
50041;PMS7003;44598;51.606;5.912;2022-12-18T14:09:37;30.61;27.04;12.65
50041;PMS7003;44598;51.606;5.912;2022-12-18T14:22:58;28.69;25.62;11.78
50041;PMS7003;44598;51.606;5.912;2022-12-18T14:36:19;30.25;25.95;12.0
50041;PMS7003;44598;51.606;5.912;2022-12-18T14:49:40;30.85;27.26;12.54
50041;PMS7003;44598;51.606;5.912;2022-12-18T15:03:01;31.57;27.7;13.09
50041;PMS7003;44598;51.606;5.912;2022-12-18T15:16:22;33.98;28.35;13.31
50041;PMS7003;44598;51.606;5.912;2022-12-18T15:29:43;34.34;29.22;13.63
50041;PMS7003;44598;51.606;5.912;2022-12-18T15:56:25;33.49;28.24;13.2
50041;PMS7003;44598;51.606;5.912;2022-12-18T16:09:46;32.89;28.79;13.42
50041;PMS7003;44598;51.606;5.912;2022-12-18T16:23:07;39.74;33.04;16.25
50041;PMS7003;44598;51.606;5.912;2022-12-18T16:36:28;36.38;30.86;14.83
50041;PMS7003;44598;51.606;5.912;2022-12-18T16:49:49;37.58;30.96;14.72
50041;PMS7003;44598;51.606;5.912;2022-12-18T17:03:10;36.26;30.86;14.72
50041;PMS7003;44598;51.606;5.912;2022-12-18T17:16:31;36.62;30.96;14.83
50041;PMS7003;44598;51.606;5.912;2022-12-18T17:29:52;41.66;33.91;16.58
50041;PMS7003;44598;51.606;5.912;2022-12-18T17:43:13;39.14;32.16;15.27
50041;PMS7003;44598;51.606;5.912;2022-12-18T17:56:34;36.5;30.64;15.05
50041;PMS7003;44598;51.606;5.912;2022-12-18T18:09:55;38.06;31.73;14.62
50041;PMS7003;44598;51.606;5.912;2022-12-18T18:23:16;37.94;31.95;14.94
50041;PMS7003;44598;51.606;5.912;2022-12-18T18:36:37;41.54;33.8;16.36
50041;PMS7003;44598;51.606;5.912;2022-12-18T18:49:58;38.66;32.05;15.27
50041;PMS7003;44598;51.606;5.912;2022-12-18T19:03:19;37.58;31.62;14.94
50041;PMS7003;44598;51.606;5.912;2022-12-18T19:16:40;39.02;32.49;15.27
50041;PMS7003;44598;51.606;5.912;2022-12-18T19:30:01;38.9;32.27;15.71
50041;PMS7003;44598;51.606;5.912;2022-12-18T19:43:22;39.26;32.82;16.03
50041;PMS7003;44598;51.606;5.912;2022-12-18T19:56:43;39.38;32.82;16.03
50041;PMS7003;44598;51.606;5.912;2022-12-18T20:10:04;39.02;32.16;14.94
50041;PMS7003;44598;51.606;5.912;2022-12-18T20:23:25;41.3;33.8;16.14
50041;PMS7003;44598;51.606;5.912;2022-12-18T20:36:46;42.98;34.67;16.36
50041;PMS7003;44598;51.606;5.912;2022-12-18T20:50:07;45.74;35.65;16.8
50041;PMS7003;44598;51.606;5.912;2022-12-18T21:03:28;45.38;36.09;17.45
50041;PMS7003;44598;51.606;5.912;2022-12-18T21:16:49;44.66;36.2;17.01
50041;PMS7003;44598;51.606;5.912;2022-12-18T21:30:10;48.26;38.49;17.45
50041;PMS7003;44598;51.606;5.912;2022-12-18T21:43:31;45.38;36.74;17.56
50041;PMS7003;44598;51.606;5.912;2022-12-18T21:56:52;48.38;39.03;17.45
50041;PMS7003;44598;51.606;5.912;2022-12-18T22:10:13;47.9;38.38;17.99
50041;PMS7003;44598;51.606;5.912;2022-12-18T22:23:34;47.66;37.72;17.99
50041;PMS7003;44598;51.606;5.912;2022-12-18T22:36:55;47.18;38.05;18.1
50041;PMS7003;44598;51.606;5.912;2022-12-18T23:03:37;47.66;37.94;18.65
50041;PMS7003;44598;51.606;5.912;2022-12-18T23:16:59;49.22;39.58;18.65
50041;PMS7003;44598;51.606;5.912;2022-12-18T23:43:41;46.82;37.61;17.45
50041;PMS7003;44598;51.606;5.912;2022-12-18T23:57:02;48.5;37.72;17.56
